sensor_id;sensor_type;location;lat;lon;timestamp;pressure;altitude;pressure_sealevel;temperature;humidity
60589;BME280;46421;48.610;9.334;2022-08-21T00:01:39;98201.88;;;15.00;100.00
60589;BME280;46421;48.610;9.334;2022-08-21T00:04:06;98211.53;;;14.94;100.00
60589;BME280;46421;48.610;9.334;2022-08-21T00:06:31;98207.00;;;15.01;100.00
60589;BME280;46421;48.610;9.334;2022-08-21T00:08:57;98196.41;;;14.66;100.00
60589;BME280;46421;48.610;9.334;2022-08-21T00:11:22;98193.47;;;14.61;100.00
60589;BME280;46421;48.610;9.334;2022-08-21T00:13:47;98196.03;;;14.76;100.00
60589;BME280;46421;48.610;9.334;2022-08-21T00:16:12;98193.91;;;15.33;100.00
60589;BME280;46421;48.610;9.334;2022-08-21T00:18:38;98194.31;;;15.24;100.00
60589;BME280;46421;48.610;9.334;2022-08-21T00:21:04;98201.09;;;15.13;100.00
60589;BME280;46421;48.610;9.334;2022-08-21T00:23:29;98195.13;;;15.24;99.31
60589;BME280;46421;48.610;9.334;2022-08-21T00:25:55;98198.06;;;15.43;100.00
60589;BME280;46421;48.610;9.334;2022-08-21T00:28:20;98199.50;;;15.39;99.50
60589;BME280;46421;48.610;9.334;2022-08-21T00:30:45;98194.69;;;15.07;100.00
60589;BME280;46421;48.610;9.334;2022-08-21T00:33:11;98198.97;;;15.01;100.00
60589;BME280;46421;48.610;9.334;2022-08-21T00:35:41;98187.34;;;14.74;100.00
60589;BME280;46421;48.610;9.334;2022-08-21T00:38:07;98190.97;;;14.53;100.00
60589;BME280;46421;48.610;9.334;2022-08-21T00:40:47;98191.81;;;14.60;100.00
60589;BME280;46421;48.610;9.334;2022-08-21T00:43:16;98196.69;;;14.85;100.00
60589;BME280;46421;48.610;9.334;2022-08-21T00:45:41;98192.03;;;15.21;98.30
60589;BME280;46421;48.610;9.334;2022-08-21T00:48:07;98191.34;;;14.85;99.78
60589;BME280;46421;48.610;9.334;2022-08-21T00:50:35;98186.88;;;15.19;100.00
60589;BME280;46421;48.610;9.334;2022-08-21T00:53:03;98188.69;;;14.98;99.84
60589;BME280;46421;48.610;9.334;2022-08-21T00:55:31;98190.81;;;15.23;100.00
60589;BME280;46421;48.610;9.334;2022-08-21T00:57:59;98187.59;;;14.86;98.26
60589;BME280;46421;48.610;9.334;2022-08-21T01:00:29;98185.22;;;14.63;100.00
60589;BME280;46421;48.610;9.334;2022-08-21T01:02:56;98183.69;;;14.47;100.00
60589;BME280;46421;48.610;9.334;2022-08-21T01:05:21;98182.72;;;14.54;100.00
60589;BME280;46421;48.610;9.334;2022-08-21T01:07:47;98181.66;;;14.42;100.00
60589;BME280;46421;48.610;9.334;2022-08-21T01:10:13;98187.44;;;14.52;100.00
60589;BME280;46421;48.610;9.334;2022-08-21T01:12:39;98187.84;;;14.49;100.00
60589;BME280;46421;48.610;9.334;2022-08-21T01:15:07;98187.19;;;14.41;99.49
60589;BME280;46421;48.610;9.334;2022-08-21T01:17:33;98181.81;;;14.34;100.00
60589;BME280;46421;48.610;9.334;2022-08-21T01:20:01;98178.16;;;14.06;100.00
60589;BME280;46421;48.610;9.334;2022-08-21T01:22:28;98185.31;;;14.06;100.00
60589;BME280;46421;48.610;9.334;2022-08-21T01:24:54;98180.47;;;14.23;100.00
60589;BME280;46421;48.610;9.334;2022-08-21T01:27:19;98186.31;;;14.33;100.00
60589;BME280;46421;48.610;9.334;2022-08-21T01:29:56;98175.84;;;14.38;99.97
60589;BME280;46421;48.610;9.334;2022-08-21T01:32:23;98186.38;;;14.40;100.00
60589;BME280;46421;48.610;9.334;2022-08-21T01:34:50;98171.44;;;14.59;98.40
60589;BME280;46421;48.610;9.334;2022-08-21T01:37:16;98173.88;;;15.02;100.00
60589;BME280;46421;48.610;9.334;2022-08-21T01:39:42;98172.56;;;14.78;97.06
60589;BME280;46421;48.610;9.334;2022-08-21T01:42:08;98170.16;;;14.55;99.00
60589;BME280;46421;48.610;9.334;2022-08-21T01:44:34;98170.97;;;14.49;99.65
60589;BME280;46421;48.610;9.334;2022-08-21T01:47:02;98175.56;;;14.20;98.65
60589;BME280;46421;48.610;9.334;2022-08-21T01:49:28;98172.59;;;14.08;98.47
60589;BME280;46421;48.610;9.334;2022-08-21T01:51:53;98171.72;;;13.72;100.00
60589;BME280;46421;48.610;9.334;2022-08-21T01:54:19;98180.25;;;13.83;100.00
60589;BME280;46421;48.610;9.334;2022-08-21T01:56:47;98174.53;;;14.21;100.00
60589;BME280;46421;48.610;9.334;2022-08-21T01:59:13;98172.09;;;14.68;100.00
60589;BME280;46421;48.610;9.334;2022-08-21T02:01:39;98169.25;;;14.69;97.27
60589;BME280;46421;48.610;9.334;2022-08-21T02:04:04;98163.94;;;14.41;97.75
60589;BME280;46421;48.610;9.334;2022-08-21T02:06:30;98158.94;;;14.31;98.12
60589;BME280;46421;48.610;9.334;2022-08-21T02:08:55;98156.78;;;13.78;99.93
60589;BME280;46421;48.610;9.334;2022-08-21T02:11:20;98156.22;;;13.61;100.00
60589;BME280;46421;48.610;9.334;2022-08-21T02:13:46;98152.56;;;13.40;100.00
60589;BME280;46421;48.610;9.334;2022-08-21T02:16:11;98157.88;;;13.62;100.00
60589;BME280;46421;48.610;9.334;2022-08-21T02:18:37;98159.47;;;14.13;100.00
60589;BME280;46421;48.610;9.334;2022-08-21T02:21:03;98158.28;;;14.58;100.00
60589;BME280;46421;48.610;9.334;2022-08-21T02:23:29;98154.03;;;14.77;100.00
60589;BME280;46421;48.610;9.334;2022-08-21T02:25:57;98154.53;;;14.52;96.07
60589;BME280;46421;48.610;9.334;2022-08-21T02:28:22;98138.16;;;14.27;95.57
60589;BME280;46421;48.610;9.334;2022-08-21T02:30:48;98147.31;;;14.11;97.02
60589;BME280;46421;48.610;9.334;2022-08-21T02:33:14;98140.31;;;14.45;98.34
60589;BME280;46421;48.610;9.334;2022-08-21T02:35:41;98147.97;;;14.19;96.47
60589;BME280;46421;48.610;9.334;2022-08-21T02:38:09;98153.31;;;14.19;95.72
60589;BME280;46421;48.610;9.334;2022-08-21T02:40:38;98148.13;;;14.46;95.70
60589;BME280;46421;48.610;9.334;2022-08-21T02:43:05;98146.50;;;14.10;95.17
60589;BME280;46421;48.610;9.334;2022-08-21T02:45:32;98146.59;;;13.95;97.71
60589;BME280;46421;48.610;9.334;2022-08-21T02:48:01;98148.72;;;14.42;100.00
60589;BME280;46421;48.610;9.334;2022-08-21T02:50:35;98151.06;;;14.58;99.85
60589;BME280;46421;48.610;9.334;2022-08-21T02:53:01;98153.00;;;14.78;95.14
60589;BME280;46421;48.610;9.334;2022-08-21T02:55:29;98146.69;;;14.44;94.92
60589;BME280;46421;48.610;9.334;2022-08-21T02:57:56;98150.53;;;14.34;92.08
60589;BME280;46421;48.610;9.334;2022-08-21T03:00:23;98149.91;;;13.97;96.37
60589;BME280;46421;48.610;9.334;2022-08-21T03:02:49;98154.59;;;13.60;97.15
60589;BME280;46421;48.610;9.334;2022-08-21T03:05:16;98156.75;;;13.28;99.48
60589;BME280;46421;48.610;9.334;2022-08-21T03:07:43;98151.78;;;13.25;100.00
60589;BME280;46421;48.610;9.334;2022-08-21T03:10:09;98153.06;;;13.51;100.00
60589;BME280;46421;48.610;9.334;2022-08-21T03:12:34;98149.56;;;14.07;100.00
60589;BME280;46421;48.610;9.334;2022-08-21T03:15:00;98147.09;;;14.05;96.05
60589;BME280;46421;48.610;9.334;2022-08-21T03:17:25;98145.69;;;13.81;95.94
60589;BME280;46421;48.610;9.334;2022-08-21T03:19:50;98154.25;;;13.70;96.95
60589;BME280;46421;48.610;9.334;2022-08-21T03:22:16;98148.16;;;13.54;98.55
60589;BME280;46421;48.610;9.334;2022-08-21T03:24:41;98143.34;;;13.43;99.93
60589;BME280;46421;48.610;9.334;2022-08-21T03:27:06;98154.91;;;14.07;100.00
60589;BME280;46421;48.610;9.334;2022-08-21T03:29:32;98158.59;;;14.06;95.18
60589;BME280;46421;48.610;9.334;2022-08-21T03:31:57;98157.88;;;13.90;95.61
60589;BME280;46421;48.610;9.334;2022-08-21T03:34:22;98157.34;;;13.73;96.02
60589;BME280;46421;48.610;9.334;2022-08-21T03:36:48;98161.09;;;13.79;95.91
60589;BME280;46421;48.610;9.334;2022-08-21T03:39:15;98163.13;;;14.05;93.95
60589;BME280;46421;48.610;9.334;2022-08-21T03:41:40;98160.84;;;14.37;91.64
60589;BME280;46421;48.610;9.334;2022-08-21T03:44:06;98160.47;;;14.05;92.91
60589;BME280;46421;48.610;9.334;2022-08-21T03:46:31;98167.97;;;13.67;94.05
60589;BME280;46421;48.610;9.334;2022-08-21T03:48:56;98164.25;;;13.39;97.03
60589;BME280;46421;48.610;9.334;2022-08-21T03:51:22;98161.75;;;13.38;96.75
60589;BME280;46421;48.610;9.334;2022-08-21T03:53:47;98162.75;;;13.37;97.29
60589;BME280;46421;48.610;9.334;2022-08-21T03:56:12;98160.47;;;13.34;97.35
60589;BME280;46421;48.610;9.334;2022-08-21T03:58:37;98165.69;;;13.20;99.28
60589;BME280;46421;48.610;9.334;2022-08-21T04:01:03;98165.78;;;13.49;100.00
60589;BME280;46421;48.610;9.334;2022-08-21T04:03:29;98160.41;;;13.70;100.00
60589;BME280;46421;48.610;9.334;2022-08-21T04:05:54;98171.66;;;13.87;94.27
60589;BME280;46421;48.610;9.334;2022-08-21T04:08:20;98162.47;;;13.47;95.01
60589;BME280;46421;48.610;9.334;2022-08-21T04:10:47;98158.63;;;13.34;96.10
60589;BME280;46421;48.610;9.334;2022-08-21T04:13:14;98164.47;;;13.23;98.25
60589;BME280;46421;48.610;9.334;2022-08-21T04:15:39;98169.31;;;13.34;97.35
60589;BME280;46421;48.610;9.334;2022-08-21T04:18:05;98170.50;;;14.03;99.68
60589;BME280;46421;48.610;9.334;2022-08-21T04:20:30;98172.31;;;13.96;92.11
60589;BME280;46421;48.610;9.334;2022-08-21T04:22:55;98178.09;;;13.71;94.31
60589;BME280;46421;48.610;9.334;2022-08-21T04:25:22;98183.94;;;13.82;92.79
60589;BME280;46421;48.610;9.334;2022-08-21T04:27:48;98183.78;;;14.60;96.75
60589;BME280;46421;48.610;9.334;2022-08-21T04:30:15;98189.22;;;14.38;91.89
60589;BME280;46421;48.610;9.334;2022-08-21T04:32:45;98185.81;;;14.16;90.82
60589;BME280;46421;48.610;9.334;2022-08-21T04:35:11;98194.13;;;13.28;94.01
60589;BME280;46421;48.610;9.334;2022-08-21T04:37:37;98195.03;;;13.20;96.61
60589;BME280;46421;48.610;9.334;2022-08-21T04:40:03;98192.94;;;13.16;96.74
60589;BME280;46421;48.610;9.334;2022-08-21T04:42:29;98194.88;;;13.22;97.02
60589;BME280;46421;48.610;9.334;2022-08-21T04:44:55;98183.09;;;13.38;95.16
60589;BME280;46421;48.610;9.334;2022-08-21T04:47:20;98191.69;;;13.33;96.16
60589;BME280;46421;48.610;9.334;2022-08-21T04:49:46;98198.38;;;13.22;97.01
60589;BME280;46421;48.610;9.334;2022-08-21T04:52:13;98207.34;;;13.36;98.78
60589;BME280;46421;48.610;9.334;2022-08-21T04:54:40;98204.03;;;13.78;94.70
60589;BME280;46421;48.610;9.334;2022-08-21T04:57:08;98209.75;;;14.31;91.78
60589;BME280;46421;48.610;9.334;2022-08-21T04:59:38;98207.66;;;14.62;91.15
60589;BME280;46421;48.610;9.334;2022-08-21T05:02:05;98207.41;;;14.15;91.41
60589;BME280;46421;48.610;9.334;2022-08-21T05:04:33;98211.88;;;13.79;93.98
60589;BME280;46421;48.610;9.334;2022-08-21T05:07:04;98215.16;;;13.38;95.63
60589;BME280;46421;48.610;9.334;2022-08-21T05:09:30;98211.41;;;13.54;95.22
60589;BME280;46421;48.610;9.334;2022-08-21T05:11:56;98215.13;;;13.74;99.44
60589;BME280;46421;48.610;9.334;2022-08-21T05:14:21;98209.13;;;14.29;97.81
60589;BME280;46421;48.610;9.334;2022-08-21T05:16:47;98215.63;;;14.55;92.42
60589;BME280;46421;48.610;9.334;2022-08-21T05:19:12;98218.59;;;14.32;92.75
60589;BME280;46421;48.610;9.334;2022-08-21T05:21:40;98212.78;;;14.57;97.13
60589;BME280;46421;48.610;9.334;2022-08-21T05:24:06;98214.72;;;14.34;99.27
60589;BME280;46421;48.610;9.334;2022-08-21T05:26:32;98216.06;;;14.52;94.76
60589;BME280;46421;48.610;9.334;2022-08-21T05:28:57;98224.25;;;13.87;96.13
60589;BME280;46421;48.610;9.334;2022-08-21T05:31:23;98223.16;;;13.81;98.22
60589;BME280;46421;48.610;9.334;2022-08-21T05:33:48;98220.63;;;13.95;98.21
60589;BME280;46421;48.610;9.334;2022-08-21T05:36:13;98224.47;;;14.14;99.46
60589;BME280;46421;48.610;9.334;2022-08-21T05:38:39;98223.25;;;14.23;99.33
60589;BME280;46421;48.610;9.334;2022-08-21T05:41:04;98224.09;;;14.23;100.00
60589;BME280;46421;48.610;9.334;2022-08-21T05:43:29;98222.38;;;14.44;98.90
60589;BME280;46421;48.610;9.334;2022-08-21T05:45:55;98227.69;;;14.73;98.87
60589;BME280;46421;48.610;9.334;2022-08-21T05:48:22;98231.16;;;15.15;96.32
60589;BME280;46421;48.610;9.334;2022-08-21T05:50:49;98229.19;;;15.57;94.86
60589;BME280;46421;48.610;9.334;2022-08-21T05:53:15;98231.28;;;15.82;94.99
60589;BME280;46421;48.610;9.334;2022-08-21T05:55:42;98230.69;;;16.07;94.14
60589;BME280;46421;48.610;9.334;2022-08-21T05:58:08;98226.72;;;16.43;93.10
60589;BME280;46421;48.610;9.334;2022-08-21T06:00:33;98228.41;;;16.04;90.99
60589;BME280;46421;48.610;9.334;2022-08-21T06:02:58;98225.75;;;15.90;93.31
60589;BME280;46421;48.610;9.334;2022-08-21T06:05:24;98228.22;;;15.85;92.92
60589;BME280;46421;48.610;9.334;2022-08-21T06:07:49;98230.41;;;16.49;90.94
60589;BME280;46421;48.610;9.334;2022-08-21T06:10:15;98224.78;;;17.86;86.99
60589;BME280;46421;48.610;9.334;2022-08-21T06:12:40;98220.94;;;19.19;78.39
60589;BME280;46421;48.610;9.334;2022-08-21T06:15:06;98223.28;;;19.16;76.19
60589;BME280;46421;48.610;9.334;2022-08-21T06:17:31;98228.38;;;19.66;75.98
60589;BME280;46421;48.610;9.334;2022-08-21T06:19:56;98227.88;;;20.35;71.45
60589;BME280;46421;48.610;9.334;2022-08-21T06:22:22;98222.41;;;22.55;64.41
60589;BME280;46421;48.610;9.334;2022-08-21T06:24:47;98229.56;;;23.88;54.50
60589;BME280;46421;48.610;9.334;2022-08-21T06:27:12;98236.16;;;24.29;53.15
60589;BME280;46421;48.610;9.334;2022-08-21T06:29:38;98233.22;;;26.10;53.44
60589;BME280;46421;48.610;9.334;2022-08-21T06:32:04;98230.22;;;26.32;49.00
60589;BME280;46421;48.610;9.334;2022-08-21T06:34:30;98237.78;;;26.50;46.40
60589;BME280;46421;48.610;9.334;2022-08-21T06:36:55;98230.16;;;26.52;46.25
60589;BME280;46421;48.610;9.334;2022-08-21T06:39:20;98225.44;;;26.84;44.39
60589;BME280;46421;48.610;9.334;2022-08-21T06:41:46;98230.41;;;26.61;49.32
60589;BME280;46421;48.610;9.334;2022-08-21T06:44:12;98222.47;;;27.36;46.79
60589;BME280;46421;48.610;9.334;2022-08-21T06:46:37;98220.72;;;27.90;43.30
60589;BME280;46421;48.610;9.334;2022-08-21T06:49:03;98220.84;;;27.29;41.93
60589;BME280;46421;48.610;9.334;2022-08-21T06:51:28;98221.09;;;28.13;42.86
60589;BME280;46421;48.610;9.334;2022-08-21T06:53:54;98223.06;;;29.33;42.42
60589;BME280;46421;48.610;9.334;2022-08-21T06:56:20;98228.81;;;28.89;41.46
60589;BME280;46421;48.610;9.334;2022-08-21T06:58:46;98217.94;;;27.60;40.41
60589;BME280;46421;48.610;9.334;2022-08-21T07:01:11;98218.25;;;27.59;40.55
60589;BME280;46421;48.610;9.334;2022-08-21T07:03:42;98223.81;;;27.83;38.90
60589;BME280;46421;48.610;9.334;2022-08-21T07:06:09;98221.34;;;28.16;38.22
60589;BME280;46421;48.610;9.334;2022-08-21T07:08:36;98222.50;;;28.64;37.35
60589;BME280;46421;48.610;9.334;2022-08-21T07:11:08;98218.06;;;28.73;38.70
60589;BME280;46421;48.610;9.334;2022-08-21T07:13:35;98223.53;;;28.44;37.86
60589;BME280;46421;48.610;9.334;2022-08-21T07:16:00;98220.22;;;30.10;37.25
60589;BME280;46421;48.610;9.334;2022-08-21T07:18:25;98221.34;;;28.16;39.26
60589;BME280;46421;48.610;9.334;2022-08-21T07:20:51;98215.94;;;26.76;41.54
60589;BME280;46421;48.610;9.334;2022-08-21T07:23:28;98220.78;;;29.16;38.68
60589;BME280;46421;48.610;9.334;2022-08-21T07:25:54;98209.38;;;29.86;37.88
60589;BME280;46421;48.610;9.334;2022-08-21T07:28:20;98209.59;;;30.36;39.58
60589;BME280;46421;48.610;9.334;2022-08-21T07:30:45;98206.28;;;31.82;34.75
60589;BME280;46421;48.610;9.334;2022-08-21T07:33:11;98208.16;;;31.59;32.80
60589;BME280;46421;48.610;9.334;2022-08-21T07:35:36;98200.78;;;30.25;36.77
60589;BME280;46421;48.610;9.334;2022-08-21T07:38:02;98199.25;;;30.47;34.89
60589;BME280;46421;48.610;9.334;2022-08-21T07:40:27;98201.50;;;31.15;34.46
60589;BME280;46421;48.610;9.334;2022-08-21T07:42:52;98197.31;;;31.03;33.56
60589;BME280;46421;48.610;9.334;2022-08-21T07:45:19;98195.97;;;31.29;34.18
60589;BME280;46421;48.610;9.334;2022-08-21T07:47:45;98192.28;;;30.83;34.71
60589;BME280;46421;48.610;9.334;2022-08-21T07:50:12;98191.97;;;32.26;35.01
60589;BME280;46421;48.610;9.334;2022-08-21T07:52:38;98198.16;;;32.72;32.09
60589;BME280;46421;48.610;9.334;2022-08-21T07:55:04;98189.34;;;31.66;35.77
60589;BME280;46421;48.610;9.334;2022-08-21T07:57:30;98202.53;;;32.73;32.67
60589;BME280;46421;48.610;9.334;2022-08-21T07:59:55;98193.47;;;32.09;30.10
60589;BME280;46421;48.610;9.334;2022-08-21T08:02:28;98188.28;;;32.71;29.84
60589;BME280;46421;48.610;9.334;2022-08-21T08:04:53;98189.72;;;32.68;30.21
60589;BME280;46421;48.610;9.334;2022-08-21T08:07:19;98192.47;;;33.35;31.17
60589;BME280;46421;48.610;9.334;2022-08-21T08:09:45;98185.94;;;33.31;29.46
60589;BME280;46421;48.610;9.334;2022-08-21T08:12:10;98190.84;;;33.60;29.38
60589;BME280;46421;48.610;9.334;2022-08-21T08:14:36;98190.34;;;33.67;28.82
60589;BME280;46421;48.610;9.334;2022-08-21T08:17:01;98175.38;;;34.03;27.30
60589;BME280;46421;48.610;9.334;2022-08-21T08:19:27;98182.91;;;33.50;28.52
60589;BME280;46421;48.610;9.334;2022-08-21T08:21:52;98175.31;;;34.68;33.45
60589;BME280;46421;48.610;9.334;2022-08-21T08:24:17;98171.47;;;35.33;31.20
60589;BME280;46421;48.610;9.334;2022-08-21T08:26:42;98169.44;;;34.99;29.22
60589;BME280;46421;48.610;9.334;2022-08-21T08:29:08;98162.50;;;35.57;26.46
60589;BME280;46421;48.610;9.334;2022-08-21T08:31:33;98164.56;;;36.52;29.13
60589;BME280;46421;48.610;9.334;2022-08-21T08:33:58;98158.22;;;36.27;28.05
60589;BME280;46421;48.610;9.334;2022-08-21T08:36:32;98154.63;;;35.46;26.15
60589;BME280;46421;48.610;9.334;2022-08-21T08:38:57;98148.53;;;36.45;25.77
60589;BME280;46421;48.610;9.334;2022-08-21T08:41:23;98147.25;;;36.80;27.83
60589;BME280;46421;48.610;9.334;2022-08-21T08:44:01;98137.34;;;35.83;25.19
60589;BME280;46421;48.610;9.334;2022-08-21T08:46:36;98145.41;;;36.22;25.52
60589;BME280;46421;48.610;9.334;2022-08-21T08:49:27;98133.72;;;35.58;25.39
60589;BME280;46421;48.610;9.334;2022-08-21T08:54:44;98129.41;;;35.69;26.23
60589;BME280;46421;48.610;9.334;2022-08-21T08:57:20;98129.59;;;36.22;25.58
60589;BME280;46421;48.610;9.334;2022-08-21T08:59:53;98135.84;;;36.19;26.36
60589;BME280;46421;48.610;9.334;2022-08-21T09:02:20;98132.78;;;35.54;26.01
60589;BME280;46421;48.610;9.334;2022-08-21T09:04:47;98128.41;;;35.32;25.92
60589;BME280;46421;48.610;9.334;2022-08-21T09:21:28;98121.78;;;36.49;26.91
60589;BME280;46421;48.610;9.334;2022-08-21T09:24:08;98108.28;;;36.60;25.00
60589;BME280;46421;48.610;9.334;2022-08-21T09:26:48;98108.81;;;36.91;24.17
60589;BME280;46421;48.610;9.334;2022-08-21T09:29:19;98112.88;;;37.50;27.08
60589;BME280;46421;48.610;9.334;2022-08-21T09:31:45;98103.09;;;37.69;26.24
60589;BME280;46421;48.610;9.334;2022-08-21T09:34:11;98105.81;;;37.37;25.62
60589;BME280;46421;48.610;9.334;2022-08-21T09:36:49;98102.44;;;37.43;23.26
60589;BME280;46421;48.610;9.334;2022-08-21T09:39:27;98097.00;;;37.47;22.41
60589;BME280;46421;48.610;9.334;2022-08-21T09:42:02;98101.06;;;37.81;23.24
60589;BME280;46421;48.610;9.334;2022-08-21T09:44:39;98109.00;;;37.67;24.45
60589;BME280;46421;48.610;9.334;2022-08-21T09:47:06;98103.50;;;36.85;23.71
60589;BME280;46421;48.610;9.334;2022-08-21T09:49:34;98101.41;;;35.83;26.36
60589;BME280;46421;48.610;9.334;2022-08-21T09:52:00;98089.84;;;36.15;23.08
60589;BME280;46421;48.610;9.334;2022-08-21T09:54:32;98098.34;;;35.97;25.28
60589;BME280;46421;48.610;9.334;2022-08-21T09:57:22;98100.38;;;35.88;23.19
60589;BME280;46421;48.610;9.334;2022-08-21T09:59:48;98091.00;;;36.38;23.42
60589;BME280;46421;48.610;9.334;2022-08-21T10:02:28;98090.16;;;36.38;23.58
60589;BME280;46421;48.610;9.334;2022-08-21T10:04:56;98094.22;;;37.34;24.77
60589;BME280;46421;48.610;9.334;2022-08-21T10:07:23;98082.47;;;37.38;22.68
60589;BME280;46421;48.610;9.334;2022-08-21T10:12:33;98073.09;;;37.14;24.27
60589;BME280;46421;48.610;9.334;2022-08-21T10:15:15;98074.38;;;37.61;26.06
60589;BME280;46421;48.610;9.334;2022-08-21T10:17:59;98067.72;;;36.15;21.64
60589;BME280;46421;48.610;9.334;2022-08-21T10:20:40;98060.47;;;35.64;23.51
60589;BME280;46421;48.610;9.334;2022-08-21T10:26:14;98062.69;;;37.11;24.33
60589;BME280;46421;48.610;9.334;2022-08-21T10:29:03;98058.28;;;37.51;23.18
60589;BME280;46421;48.610;9.334;2022-08-21T10:31:46;98057.63;;;37.57;22.20
60589;BME280;46421;48.610;9.334;2022-08-21T10:34:18;98059.88;;;36.95;22.90
60589;BME280;46421;48.610;9.334;2022-08-21T10:37:13;98055.78;;;37.61;26.14
60589;BME280;46421;48.610;9.334;2022-08-21T10:40:16;98056.84;;;37.57;25.02
60589;BME280;46421;48.610;9.334;2022-08-21T10:48:21;98056.56;;;36.89;23.44
60589;BME280;46421;48.610;9.334;2022-08-21T10:50:51;98051.34;;;36.22;27.81
60589;BME280;46421;48.610;9.334;2022-08-21T10:56:09;98039.88;;;36.61;20.18
60589;BME280;46421;48.610;9.334;2022-08-21T10:58:49;98040.69;;;37.02;21.11
60589;BME280;46421;48.610;9.334;2022-08-21T11:01:27;98040.59;;;36.33;21.14
60589;BME280;46421;48.610;9.334;2022-08-21T11:04:11;98031.19;;;37.76;20.58
60589;BME280;46421;48.610;9.334;2022-08-21T11:06:41;98023.31;;;37.17;23.91
60589;BME280;46421;48.610;9.334;2022-08-21T11:09:15;98028.53;;;37.35;23.88
60589;BME280;46421;48.610;9.334;2022-08-21T11:12:07;98022.56;;;38.13;23.50
60589;BME280;46421;48.610;9.334;2022-08-21T11:17:16;98020.34;;;37.39;24.86
60589;BME280;46421;48.610;9.334;2022-08-21T11:19:54;98023.69;;;36.22;21.87
60589;BME280;46421;48.610;9.334;2022-08-21T11:22:31;98019.75;;;36.23;25.44
60589;BME280;46421;48.610;9.334;2022-08-21T11:25:04;98008.56;;;34.18;26.02
60589;BME280;46421;48.610;9.334;2022-08-21T11:27:37;98002.88;;;34.65;26.88
60589;BME280;46421;48.610;9.334;2022-08-21T11:30:06;98013.59;;;33.21;24.84
60589;BME280;46421;48.610;9.334;2022-08-21T11:45:33;97994.63;;;36.03;22.53
60589;BME280;46421;48.610;9.334;2022-08-21T11:50:31;97989.53;;;35.43;25.03
60589;BME280;46421;48.610;9.334;2022-08-21T11:53:08;97993.03;;;35.32;24.23
60589;BME280;46421;48.610;9.334;2022-08-21T11:55:40;97986.56;;;36.11;24.50
60589;BME280;46421;48.610;9.334;2022-08-21T11:58:14;97990.34;;;36.71;24.76
60589;BME280;46421;48.610;9.334;2022-08-21T12:00:55;97984.13;;;34.59;25.51
60589;BME280;46421;48.610;9.334;2022-08-21T12:03:27;97980.16;;;35.36;26.00
60589;BME280;46421;48.610;9.334;2022-08-21T12:05:57;97974.28;;;33.59;26.01
60589;BME280;46421;48.610;9.334;2022-08-21T12:16:49;97977.75;;;31.98;28.64
60589;BME280;46421;48.610;9.334;2022-08-21T12:21:57;97966.31;;;34.26;27.28
60589;BME280;46421;48.610;9.334;2022-08-21T12:24:36;97969.78;;;34.65;24.24
60589;BME280;46421;48.610;9.334;2022-08-21T12:29:49;97963.06;;;34.75;22.01
60589;BME280;46421;48.610;9.334;2022-08-21T12:34:49;97951.47;;;34.61;25.89
60589;BME280;46421;48.610;9.334;2022-08-21T12:37:20;97947.19;;;34.00;25.44
60589;BME280;46421;48.610;9.334;2022-08-21T12:39:49;97958.66;;;31.52;28.76
60589;BME280;46421;48.610;9.334;2022-08-21T12:44:47;97942.38;;;33.97;27.05
60589;BME280;46421;48.610;9.334;2022-08-21T12:47:23;97934.88;;;34.48;25.80
60589;BME280;46421;48.610;9.334;2022-08-21T12:50:11;97944.53;;;35.09;22.45
60589;BME280;46421;48.610;9.334;2022-08-21T12:52:59;97944.69;;;35.25;21.61
60589;BME280;46421;48.610;9.334;2022-08-21T12:55:29;97937.00;;;34.64;19.63
60589;BME280;46421;48.610;9.334;2022-08-21T12:57:55;97938.25;;;33.43;19.89
60589;BME280;46421;48.610;9.334;2022-08-21T13:00:24;97930.72;;;34.33;19.96
60589;BME280;46421;48.610;9.334;2022-08-21T13:02:51;97935.59;;;35.25;20.41
60589;BME280;46421;48.610;9.334;2022-08-21T13:05:35;97928.06;;;34.67;23.03
60589;BME280;46421;48.610;9.334;2022-08-21T13:08:06;97941.03;;;35.58;21.18
60589;BME280;46421;48.610;9.334;2022-08-21T13:10:33;97933.38;;;34.09;25.62
60589;BME280;46421;48.610;9.334;2022-08-21T13:13:02;97929.66;;;33.74;26.47
60589;BME280;46421;48.610;9.334;2022-08-21T13:15:32;97932.47;;;33.96;26.83
60589;BME280;46421;48.610;9.334;2022-08-21T13:17:58;97932.69;;;32.95;24.78
60589;BME280;46421;48.610;9.334;2022-08-21T13:20:28;97925.97;;;33.23;23.37
60589;BME280;46421;48.610;9.334;2022-08-21T13:22:54;97921.97;;;33.03;25.85
60589;BME280;46421;48.610;9.334;2022-08-21T13:25:24;97921.59;;;33.61;25.83
60589;BME280;46421;48.610;9.334;2022-08-21T13:27:58;97924.63;;;33.47;22.54
60589;BME280;46421;48.610;9.334;2022-08-21T13:30:23;97921.94;;;33.59;23.35
60589;BME280;46421;48.610;9.334;2022-08-21T13:32:56;97928.31;;;33.81;24.35
60589;BME280;46421;48.610;9.334;2022-08-21T13:35:30;97918.00;;;33.21;22.99
60589;BME280;46421;48.610;9.334;2022-08-21T13:37:59;97915.38;;;33.72;24.56
60589;BME280;46421;48.610;9.334;2022-08-21T13:40:29;97907.66;;;33.66;24.52
60589;BME280;46421;48.610;9.334;2022-08-21T13:42:55;97913.63;;;33.68;25.15
60589;BME280;46421;48.610;9.334;2022-08-21T13:45:31;97914.88;;;34.85;20.94
60589;BME280;46421;48.610;9.334;2022-08-21T13:48:00;97912.66;;;34.78;23.04
60589;BME280;46421;48.610;9.334;2022-08-21T13:50:26;97905.91;;;34.33;23.05
60589;BME280;46421;48.610;9.334;2022-08-21T13:53:01;97911.09;;;34.14;22.29
60589;BME280;46421;48.610;9.334;2022-08-21T13:55:42;97905.72;;;33.19;24.75
60589;BME280;46421;48.610;9.334;2022-08-21T13:58:09;97901.38;;;33.56;24.44
60589;BME280;46421;48.610;9.334;2022-08-21T14:00:45;97906.97;;;33.69;25.41
60589;BME280;46421;48.610;9.334;2022-08-21T14:03:23;97893.50;;;32.72;26.89
60589;BME280;46421;48.610;9.334;2022-08-21T14:05:51;97894.41;;;33.11;26.52
60589;BME280;46421;48.610;9.334;2022-08-21T14:08:33;97892.63;;;33.16;24.36
60589;BME280;46421;48.610;9.334;2022-08-21T14:11:02;97901.81;;;32.28;26.62
60589;BME280;46421;48.610;9.334;2022-08-21T14:13:34;97896.94;;;32.60;25.52